createdAt,value
2023-02-20T00:04:43.662Z,3.38
2023-02-20T00:09:45.866Z,4.43
2023-02-20T00:14:48.421Z,3.75
2023-02-20T00:19:50.545Z,4.97
2023-02-20T00:24:52.920Z,3.38
2023-02-20T00:29:54.854Z,4.95
2023-02-20T00:34:56.787Z,3.33
2023-02-20T00:39:59.381Z,3.78
2023-02-20T00:45:04.974Z,2.92
2023-02-20T00:50:09.734Z,2.80
2023-02-20T00:55:12.152Z,2.35
2023-02-20T01:00:21.652Z,3.92
2023-02-20T01:05:24.302Z,2.42
2023-02-20T01:10:27.881Z,1.88
2023-02-20T01:15:29.857Z,2.83
2023-02-20T01:20:32.490Z,2.88
2023-02-20T01:25:34.437Z,2.45
2023-02-20T01:30:36.605Z,2.15
2023-02-20T01:35:38.611Z,1.92
2023-02-20T01:40:47.510Z,2.38
2023-02-20T01:45:49.528Z,2.30
2023-02-20T01:50:56.247Z,2.22
2023-02-20T01:56:09.324Z,2.70
2023-02-20T02:01:12.259Z,2.72
2023-02-20T02:06:15.223Z,3.33
2023-02-20T02:11:23.819Z,2.60
2023-02-20T02:16:31.258Z,2.42
2023-02-20T02:22:14.993Z,2.10
2023-02-20T02:32:31.843Z,2.75
2023-02-20T02:37:47.080Z,2.03
2023-02-20T02:43:17.860Z,2.33
2023-02-20T02:48:27.643Z,2.17
2023-02-20T02:53:29.548Z,2.45
2023-02-20T02:58:31.536Z,2.22
2023-02-20T03:03:35.485Z,2.78
2023-02-20T03:08:41.568Z,2.30
2023-02-20T03:14:31.892Z,2.00
2023-02-20T03:20:02.412Z,2.22
2023-02-20T03:25:34.889Z,2.38
2023-02-20T03:30:46.369Z,2.55
2023-02-20T03:36:07.598Z,2.10
2023-02-20T03:41:31.385Z,2.25
2023-02-20T03:46:36.490Z,2.40
2023-02-20T03:51:39.726Z,2.72
2023-02-20T03:56:54.738Z,2.50
2023-02-20T04:02:01.485Z,2.22
2023-02-20T04:07:08.518Z,1.98
2023-02-20T04:12:16.713Z,2.45
2023-02-20T04:17:26.677Z,1.85
2023-02-20T04:22:33.019Z,2.00
2023-02-20T04:27:35.130Z,1.98
2023-02-20T04:32:37.202Z,1.73
2023-02-20T04:37:39.630Z,1.60
2023-02-20T04:42:42.940Z,2.10
2023-02-20T04:47:46.424Z,2.20
2023-02-20T04:52:48.692Z,1.88
2023-02-20T04:57:51.220Z,2.55
2023-02-20T05:02:53.883Z,2.20
2023-02-20T05:08:06.928Z,2.00
2023-02-20T05:13:08.982Z,2.00
2023-02-20T05:18:10.934Z,2.63
2023-02-20T05:23:13.174Z,2.30
2023-02-20T05:28:15.185Z,2.58
2023-02-20T05:33:17.137Z,1.98
2023-02-20T05:38:19.228Z,2.70
2023-02-20T05:43:21.287Z,2.72
2023-02-20T05:48:23.557Z,2.72
2023-02-20T05:53:28.834Z,3.28
2023-02-20T05:58:30.863Z,3.15
2023-02-20T06:03:32.781Z,2.53
2023-02-20T06:08:34.810Z,3.08
2023-02-20T06:13:37.164Z,2.33
2023-02-20T06:18:41.230Z,3.50
2023-02-20T06:23:46.098Z,3.35
2023-02-20T06:28:50.661Z,3.70
2023-02-20T06:33:53.286Z,3.92
2023-02-20T06:38:57.947Z,3.35
2023-02-20T06:44:00.344Z,4.57
2023-02-20T06:49:02.494Z,4.53
2023-02-20T06:54:04.579Z,3.60
2023-02-20T06:59:09.222Z,2.55
2023-02-20T07:04:22.776Z,3.42
2023-02-20T07:09:25.509Z,2.95
2023-02-20T07:14:27.516Z,3.13
2023-02-20T07:19:29.490Z,3.05
2023-02-20T07:24:32.947Z,3.55
2023-02-20T07:29:34.969Z,3.00
2023-02-20T07:34:37.085Z,3.60
2023-02-20T07:39:39.016Z,4.03
2023-02-20T07:44:41.555Z,3.97
2023-02-20T07:49:44.249Z,4.40
2023-02-20T07:54:46.593Z,3.90
2023-02-20T07:59:49.126Z,5.93
2023-02-20T08:04:51.430Z,3.80
2023-02-20T08:09:53.558Z,3.72
2023-02-20T08:14:56.058Z,5.07
2023-02-20T08:19:58.081Z,3.28
2023-02-20T08:25:00.439Z,4.72
2023-02-20T08:30:02.505Z,2.92
2023-02-20T08:35:05.879Z,3.50
2023-02-20T08:40:09.661Z,3.28
2023-02-20T08:45:15.391Z,3.75
2023-02-20T08:50:20.848Z,3.20
2023-02-20T08:55:24.682Z,3.28
2023-02-20T09:00:28.470Z,2.83
2023-02-20T09:05:31.905Z,3.47
2023-02-20T09:10:35.274Z,2.90
2023-02-20T09:15:41.785Z,7.45
2023-02-20T09:20:45.688Z,5.20
2023-02-20T09:25:49.394Z,5.65
2023-02-20T09:30:54.974Z,2.45
2023-02-20T09:35:57.163Z,4.47
2023-02-20T09:41:00.371Z,13.45
2023-02-20T09:46:20.510Z,9.20
2023-02-20T09:51:29.584Z,6.38
2023-02-20T09:56:37.506Z,8.63
2023-02-20T10:01:44.454Z,5.85
2023-02-20T10:06:47.110Z,6.45
2023-02-20T10:12:09.066Z,3.60
2023-02-20T10:17:53.876Z,3.20
2023-02-20T10:23:22.242Z,3.70
2023-02-20T10:28:24.824Z,2.72
2023-02-20T10:33:45.647Z,3.72
2023-02-20T10:38:52.622Z,2.65
2023-02-20T10:44:06.443Z,2.35
2023-02-20T10:49:13.586Z,1.98
2023-02-20T10:54:20.288Z,2.60
2023-02-20T10:59:42.572Z,7.00
2023-02-20T11:04:51.430Z,3.25
2023-02-20T11:09:53.721Z,2.20
2023-02-20T11:14:57.920Z,1.42
2023-02-20T11:20:01.532Z,2.38
2023-02-20T11:25:18.834Z,4.03
2023-02-20T11:30:31.887Z,7.10
2023-02-20T11:35:36.055Z,6.10
2023-02-20T11:40:38.286Z,5.60
2023-02-20T11:45:41.022Z,2.30
2023-02-20T11:50:50.002Z,1.63
2023-02-20T11:56:07.943Z,2.38
2023-02-20T12:01:34.250Z,2.20
2023-02-20T12:06:39.305Z,2.55
2023-02-20T12:11:41.331Z,1.80
2023-02-20T12:17:05.049Z,1.63
2023-02-20T12:22:10.270Z,3.72
2023-02-20T12:27:42.591Z,3.67
2023-02-20T12:32:44.741Z,2.63
2023-02-20T12:37:52.415Z,3.35
2023-02-20T12:43:20.512Z,5.55
2023-02-20T12:48:48.521Z,4.45
2023-02-20T12:54:07.673Z,5.10
2023-02-20T12:59:20.873Z,5.05
2023-02-20T13:04:34.944Z,3.72
2023-02-20T13:09:44.978Z,15.38
2023-02-20T13:15:24.184Z,7.38
2023-02-20T13:20:48.230Z,10.32
2023-02-20T13:25:51.335Z,3.60
2023-02-20T13:31:11.199Z,5.00
2023-02-20T13:36:19.567Z,2.33
2023-02-20T13:41:21.742Z,4.70
2023-02-20T13:46:25.767Z,11.32
2023-02-20T13:51:31.139Z,17.55
2023-02-20T13:56:39.262Z,28.88
2023-02-20T14:01:57.689Z,20.48
2023-02-20T14:07:00.045Z,14.52
2023-02-20T14:12:14.008Z,6.78
2023-02-20T14:17:21.161Z,5.65
2023-02-20T14:22:33.675Z,2.88
2023-02-20T14:27:35.797Z,2.67
2023-02-20T14:32:38.348Z,2.85
2023-02-20T14:38:07.830Z,10.23
2023-02-20T14:43:21.721Z,19.88
2023-02-20T14:48:26.948Z,18.85
2023-02-20T14:53:28.927Z,30.55
2023-02-20T14:58:36.283Z,8.25
2023-02-20T15:03:38.308Z,7.50
2023-02-20T15:08:40.389Z,5.75
2023-02-20T15:13:43.918Z,2.97
2023-02-20T15:18:48.937Z,3.72
2023-02-20T15:23:52.133Z,2.42
2023-02-20T15:29:13.696Z,10.25
2023-02-20T15:34:22.659Z,9.23
2023-02-20T15:39:25.449Z,4.30
2023-02-20T15:44:27.409Z,11.30
2023-02-20T15:49:29.413Z,12.90
2023-02-20T15:54:31.408Z,3.63
2023-02-20T15:59:33.399Z,1.90
2023-02-20T16:04:35.444Z,2.45
2023-02-20T16:09:37.560Z,1.63
2023-02-20T16:14:39.562Z,2.03
2023-02-20T16:19:42.948Z,2.00
2023-02-20T16:24:45.950Z,1.92
2023-02-20T16:29:48.666Z,1.70
2023-02-20T16:34:51.705Z,1.83
2023-02-20T16:39:53.689Z,2.42
2023-02-20T16:44:55.787Z,6.15
2023-02-20T16:50:01.530Z,5.28
2023-02-20T16:55:08.746Z,19.42
2023-02-20T17:00:17.612Z,8.05
2023-02-20T17:05:25.763Z,2.15
2023-02-20T17:10:28.909Z,2.38
2023-02-20T17:15:31.426Z,2.45
2023-02-20T17:20:33.416Z,2.42
2023-02-20T17:25:35.373Z,1.80
2023-02-20T17:30:37.410Z,1.92
2023-02-20T17:35:39.428Z,2.03
2023-02-20T17:40:41.469Z,2.13
2023-02-20T17:45:43.457Z,1.23
2023-02-20T17:50:45.634Z,1.60
2023-02-20T17:55:47.651Z,2.00
2023-02-20T18:00:49.749Z,4.63
2023-02-20T18:05:51.705Z,2.63
2023-02-20T18:10:53.713Z,2.10
2023-02-20T18:15:55.893Z,2.10
2023-02-20T18:20:57.825Z,1.90
2023-02-20T18:25:59.740Z,1.38
2023-02-20T18:31:01.678Z,1.40
2023-02-20T18:36:19.623Z,2.00
2023-02-20T18:41:21.790Z,1.40
2023-02-20T18:46:26.542Z,1.70
2023-02-20T18:51:33.410Z,1.98
2023-02-20T18:56:36.822Z,2.00
2023-02-20T19:01:41.860Z,2.33
2023-02-20T19:06:49.999Z,4.20
2023-02-20T19:11:54.511Z,3.97
2023-02-20T19:16:58.513Z,2.85
2023-02-20T19:22:01.268Z,3.72
2023-02-20T19:27:03.372Z,3.80
2023-02-20T19:32:06.008Z,2.88
2023-02-20T19:37:08.195Z,3.17
2023-02-20T19:42:10.357Z,2.50
2023-02-20T19:47:13.624Z,2.70
2023-02-20T19:52:15.999Z,2.35
2023-02-20T19:57:18.128Z,2.72
2023-02-20T20:02:24.068Z,4.43
2023-02-20T20:07:28.773Z,6.82
2023-02-20T20:12:49.108Z,7.10
2023-02-20T20:17:56.199Z,7.05
2023-02-20T20:23:01.675Z,5.78
2023-02-20T20:28:07.437Z,7.15
2023-02-20T20:33:10.177Z,6.72
2023-02-20T20:38:12.318Z,6.20
2023-02-20T20:43:15.710Z,7.28
2023-02-20T20:48:17.911Z,9.80
2023-02-20T20:53:20.098Z,11.88
2023-02-20T20:58:22.071Z,17.10
2023-02-20T21:03:24.038Z,13.25
2023-02-20T21:08:26.318Z,8.80
2023-02-20T21:13:28.554Z,5.50
2023-02-20T21:18:30.544Z,3.15
2023-02-20T21:23:35.903Z,4.60
2023-02-20T21:28:38.953Z,4.50
2023-02-20T21:33:41.120Z,2.70
2023-02-20T21:38:43.116Z,2.50
2023-02-20T21:44:17.505Z,2.83
2023-02-20T21:49:19.798Z,2.83
2023-02-20T21:54:25.097Z,2.47
2023-02-20T21:59:27.084Z,2.83
2023-02-20T22:04:28.946Z,2.53
2023-02-20T22:09:49.840Z,2.10
2023-02-20T22:15:11.861Z,2.60
2023-02-20T22:20:32.390Z,1.80
2023-02-20T22:25:53.419Z,2.20
2023-02-20T22:31:14.230Z,2.10
2023-02-20T22:36:35.237Z,2.58
2023-02-20T22:41:55.877Z,3.63
2023-02-20T22:47:19.368Z,2.42
2023-02-20T22:52:39.758Z,3.42
2023-02-20T22:58:00.702Z,2.35
2023-02-20T23:03:21.313Z,2.28
2023-02-20T23:08:42.101Z,1.98
2023-02-20T23:14:05.445Z,1.90
2023-02-20T23:19:28.025Z,2.08
2023-02-20T23:24:49.645Z,1.90
2023-02-20T23:30:11.162Z,1.90
2023-02-20T23:35:32.132Z,2.35
2023-02-20T23:40:54.534Z,1.92
2023-02-20T23:46:15.271Z,2.38
2023-02-20T23:51:35.771Z,1.80
2023-02-20T23:56:56.464Z,1.80
